Time;durP1;ratioP1;P1;durP2;ratioP2;P2;SDS_P1;SDS_P2;PMS_P1;PMS_P2;Temp;Humidity;BMP_temperature;BMP_pressure;BME280_temperature;BME280_humidity;BME280_pressure;Samples;Min_cycle;Max_cycle;Signal;HPM_P1;HPM_P2
2024/03/09 00:01:42;;;;;;;;;14.33;11.33;;;;;-3.12;82.15;100818.73;112804;243;38943;-51
2024/03/09 00:04:22;;;;;;;;;22.00;16.00;;;;;-3.15;82.22;100819.27;112488;242;163033;-49
2024/03/09 00:06:57;;;;;;;;;20.00;15.00;;;;;-3.18;82.32;100817.88;112393;244;39973;-50
2024/03/09 00:09:36;;;;;;;;;21.00;15.00;;;;;-3.19;82.36;100816.88;112292;241;161791;-51
2024/03/09 00:12:14;;;;;;;;;19.00;15.00;;;;;-3.18;82.41;100815.57;112440;243;40959;-52
2024/03/09 00:14:53;;;;;;;;;23.00;17.00;;;;;-3.16;82.43;100812.98;112413;244;39417;-50
2024/03/09 00:17:41;;;;;;;;;24.00;17.75;;;;;-3.15;82.49;100815.91;112234;241;161334;-50
2024/03/09 00:20:23;;;;;;;;;19.25;15.00;;;;;-3.14;82.66;100813.25;112378;244;39149;-50
2024/03/09 00:22:59;;;;;;;;;21.50;16.50;;;;;-3.11;82.60;100811.50;112365;241;161388;-50
2024/03/09 00:25:34;;;;;;;;;16.75;14.00;;;;;-3.11;82.72;100808.27;112429;243;39233;-49
2024/03/09 00:28:08;;;;;;;;;25.00;17.67;;;;;-3.12;82.68;100806.62;112291;241;162772;-53
2024/03/09 00:30:50;;;;;;;;;24.67;18.67;;;;;-3.18;82.83;100804.67;112381;244;39241;-54
2024/03/09 00:33:24;;;;;;;;;27.00;18.00;;;;;-3.24;83.00;100803.98;112267;241;161403;-50
2024/03/09 00:36:04;;;;;;;;;29.50;22.75;;;;;-3.27;83.04;100804.19;112514;243;39492;-50
2024/03/09 00:38:44;;;;;;;;;11.00;9.00;;;;;-3.30;83.03;100805.44;112416;244;39529;-49
2024/03/09 00:41:19;;;;;;;;;20.33;15.00;;;;;-3.35;83.09;100802.16;112272;241;162833;-49
2024/03/09 00:44:07;;;;;;;;;17.00;13.00;;;;;-3.37;83.19;100798.09;112502;244;41924;-50
2024/03/09 00:46:49;;;;;;;;;27.67;18.67;;;;;-3.39;83.27;100798.20;112411;241;161741;-50
2024/03/09 00:49:30;;;;;;;;;25.00;17.00;;;;;-3.40;83.32;100803.19;112484;243;39580;-51
2024/03/09 00:52:09;;;;;;;;;20.00;13.67;;;;;-3.40;83.38;100801.59;112265;241;161633;-52
2024/03/09 00:54:46;;;;;;;;;24.00;18.67;;;;;-3.39;83.42;100800.85;112438;244;40560;-49
2024/03/09 00:57:25;;;;;;;;;19.00;12.75;;;;;-3.40;83.45;100805.48;112296;241;161967;-49
2024/03/09 01:00:00;;;;;;;;;20.50;15.50;;;;;-3.42;83.57;100803.86;112591;243;40027;-51
2024/03/09 01:02:36;;;;;;;;;24.50;15.75;;;;;-3.41;83.62;100799.05;112401;244;39438;-51
2024/03/09 01:05:11;;;;;;;;;21.00;18.50;;;;;-3.41;83.59;100798.33;112282;241;161541;-49
2024/03/09 01:07:54;;;;;;;;;14.00;12.00;;;;;-3.43;83.73;100794.05;112474;244;40071;-52
2024/03/09 01:10:32;;;;;;;;;15.50;12.50;;;;;-3.43;83.71;100792.84;112443;241;161967;-53
2024/03/09 01:13:09;;;;;;;;;20.00;14.00;;;;;-3.45;83.77;100789.24;112447;243;39833;-52
2024/03/09 01:15:48;;;;;;;;;19.25;14.00;;;;;-3.49;83.77;100789.68;112300;242;161278;-53
2024/03/09 01:18:22;;;;;;;;;15.75;13.00;;;;;-3.54;83.83;100791.23;112396;244;40998;-52
2024/03/09 01:20:59;;;;;;;;;12.00;9.00;;;;;-3.61;83.88;100788.61;112388;244;39129;-53
2024/03/09 01:23:39;;;;;;;;;13.75;10.50;;;;;-3.66;84.04;100783.08;112285;242;161634;-50
2024/03/09 01:26:14;;;;;;;;;18.75;14.00;;;;;-3.68;84.04;100779.20;112399;244;39800;-49
2024/03/09 01:28:50;;;;;;;;;20.00;15.00;;;;;-3.72;84.22;100776.77;112396;241;162082;-50
2024/03/09 01:31:34;;;;;;;;;16.25;13.00;;;;;-3.74;84.29;100781.11;112440;243;39254;-50
2024/03/09 01:34:16;;;;;;;;;20.25;14.00;;;;;-3.74;84.23;100779.15;112289;241;161863;-52
2024/03/09 01:36:55;;;;;;;;;25.25;18.50;;;;;-3.71;84.27;100778.13;112364;243;39710;-51
2024/03/09 01:39:33;;;;;;;;;28.00;21.00;;;;;-3.68;84.27;100775.11;112280;242;162191;-53
2024/03/09 01:42:09;;;;;;;;;18.50;14.50;;;;;-3.63;84.20;100776.60;112416;244;39141;-53
2024/03/09 01:44:44;;;;;;;;;31.00;20.50;;;;;-3.63;84.25;100775.73;112432;244;39579;-52
2024/03/09 01:47:29;;;;;;;;;23.00;16.00;;;;;-3.63;84.18;100775.52;112246;242;161945;-52
2024/03/09 01:50:13;;;;;;;;;24.00;18.00;;;;;-3.65;84.15;100773.55;112410;244;39819;-51
2024/03/09 01:52:51;;;;;;;;;21.00;16.00;;;;;-3.66;84.10;100770.40;112378;241;162666;-52
2024/03/09 01:55:29;;;;;;;;;21.67;16.67;;;;;-3.69;84.17;100771.35;112411;243;39657;-53
2024/03/09 01:58:06;;;;;;;;;22.00;17.00;;;;;-3.74;84.23;100769.84;112292;240;164869;-49
2024/03/09 02:00:44;;;;;;;;;26.50;17.00;;;;;-3.77;84.22;100771.24;112358;244;40294;-50
2024/03/09 02:03:23;;;;;;;;;18.00;13.00;;;;;-3.80;84.36;100769.70;112300;241;161779;-51
2024/03/09 02:06:06;;;;;;;;;22.25;17.00;;;;;-3.83;84.39;100769.55;112497;243;39617;-51
2024/03/09 02:08:46;;;;;;;;;17.50;12.00;;;;;-3.89;84.53;100767.05;112453;244;41050;-49
2024/03/09 02:11:29;;;;;;;;;18.50;14.00;;;;;-3.93;84.63;100765.35;112250;241;161642;-49
2024/03/09 02:14:06;;;;;;;;;32.00;22.00;;;;;-3.95;84.74;100766.02;112452;244;39437;-48
2024/03/09 02:16:42;;;;;;;;;25.00;20.00;;;;;-3.96;84.79;100765.20;112412;241;161825;-48
2024/03/09 02:19:18;;;;;;;;;36.00;21.75;;;;;-3.95;84.82;100764.40;112474;243;39097;-48
2024/03/09 02:21:59;;;;;;;;;25.50;18.75;;;;;-3.92;84.85;100764.06;112327;240;162098;-48
2024/03/09 02:24:42;;;;;;;;;22.33;16.33;;;;;-3.91;84.91;100764.18;112399;244;39667;-53
2024/03/09 02:27:20;;;;;;;;;28.67;21.00;;;;;-3.92;85.01;100762.14;112330;241;162176;-52
2024/03/09 02:29:55;;;;;;;;;19.00;15.00;;;;;-3.92;85.01;100760.72;112392;244;39588;-51
2024/03/09 02:32:34;;;;;;;;;22.67;17.00;;;;;-3.92;84.95;100759.13;112411;244;41605;-51
2024/03/09 02:35:11;;;;;;;;;24.75;17.25;;;;;-3.91;85.08;100757.33;112254;242;161340;-52
2024/03/09 02:37:46;;;;;;;;;20.00;16.00;;;;;-3.93;85.02;100760.41;112391;244;40327;-51
2024/03/09 02:40:26;;;;;;;;;20.00;16.75;;;;;-3.96;85.12;100759.02;112252;244;161219;-52
2024/03/09 02:43:06;;;;;;;;;16.33;13.00;;;;;-4.01;85.15;100758.44;112379;244;39904;-53
2024/03/09 02:45:43;;;;;;;;;15.67;13.00;;;;;-4.07;85.23;100759.86;112329;241;161307;-53
2024/03/09 02:48:19;;;;;;;;;20.00;15.00;;;;;-4.10;85.28;100760.40;112490;243;39257;-49
2024/03/09 02:51:01;;;;;;;;;23.00;16.67;;;;;-4.13;85.32;100761.79;112442;243;39649;-49
2024/03/09 02:53:44;;;;;;;;;28.33;21.33;;;;;-4.15;85.41;100759.41;112458;243;40143;-53
2024/03/09 02:56:24;;;;;;;;;27.00;19.00;;;;;-4.16;85.46;100761.75;112822;243;39718;-53
2024/03/09 02:59:07;;;;;;;;;24.25;18.50;;;;;-4.15;85.49;100761.88;112408;242;161997;-49
2024/03/09 03:01:43;;;;;;;;;23.75;18.00;;;;;-4.08;85.57;100758.48;112387;244;39829;-49
2024/03/09 03:04:25;;;;;;;;;24.00;19.00;;;;;-4.02;85.45;100759.00;112379;242;162198;-49
2024/03/09 03:07:02;;;;;;;;;22.00;17.00;;;;;-3.99;85.47;100758.30;112460;244;40973;-49
2024/03/09 03:09:38;;;;;;;;;23.25;16.50;;;;;-4.01;85.47;100753.49;112338;242;161571;-52
2024/03/09 03:12:15;;;;;;;;;24.00;18.67;;;;;-4.05;85.48;100750.59;112397;244;39445;-52
2024/03/09 03:14:52;;;;;;;;;20.25;15.75;;;;;-4.08;85.39;100750.21;112430;243;41513;-49
2024/03/09 03:17:32;;;;;;;;;23.50;15.75;;;;;-4.13;85.49;100745.22;112237;241;162511;-49
2024/03/09 03:20:13;;;;;;;;;18.67;14.00;;;;;-4.19;85.61;100745.91;112520;244;40305;-52
2024/03/09 03:22:51;;;;;;;;;12.67;10.33;;;;;-4.24;85.64;100746.21;112300;241;160895;-49
2024/03/09 03:25:28;;;;;;;;;20.00;15.00;;;;;-4.29;85.66;100740.33;112482;244;41040;-49
2024/03/09 03:28:08;;;;;;;;;20.00;17.00;;;;;-4.32;85.66;100745.46;112327;241;162314;-48
2024/03/09 03:30:46;;;;;;;;;27.00;20.00;;;;;-4.34;85.80;100742.77;112468;244;39452;-48
2024/03/09 03:33:28;;;;;;;;;23.00;18.00;;;;;-4.35;85.89;100745.13;112267;241;162473;-49
2024/03/09 03:36:03;;;;;;;;;29.50;23.00;;;;;-4.36;86.07;100745.48;112459;244;39226;-48
2024/03/09 03:38:42;;;;;;;;;31.00;20.00;;;;;-4.35;86.05;100740.17;112486;243;39158;-52
2024/03/09 03:41:18;;;;;;;;;24.33;18.67;;;;;-4.33;86.13;100733.71;112325;240;162979;-52
2024/03/09 03:43:56;;;;;;;;;22.50;18.00;;;;;-4.32;86.18;100732.25;112540;244;40022;-49
2024/03/09 03:46:37;;;;;;;;;37.00;29.25;;;;;-4.31;86.20;100736.59;112375;240;161959;-49
2024/03/09 03:49:17;;;;;;;;;27.00;20.00;;;;;-4.30;86.28;100732.48;112494;244;39721;-52
2024/03/09 03:51:52;;;;;;;;;23.00;18.00;;;;;-4.31;86.28;100736.06;112340;242;162241;-52
2024/03/09 03:54:35;;;;;;;;;27.50;19.00;;;;;-4.33;86.43;100734.80;112395;244;39369;-51
2024/03/09 03:57:12;;;;;;;;;26.00;16.67;;;;;-4.34;86.36;100731.66;112404;244;39424;-52
2024/03/09 03:59:51;;;;;;;;;23.00;17.75;;;;;-4.36;86.43;100731.78;112368;244;39168;-53
2024/03/09 04:02:33;;;;;;;;;23.50;17.00;;;;;-4.38;86.42;100730.15;112382;244;39420;-53
2024/03/09 04:05:09;;;;;;;;;24.00;16.00;;;;;-4.40;86.40;100731.34;112936;241;161648;-48
2024/03/09 04:07:52;;;;;;;;;11.25;9.75;;;;;-4.42;86.36;100737.22;112444;244;39818;-51
2024/03/09 04:10:26;;;;;;;;;18.50;14.00;;;;;-4.46;86.43;100734.48;112306;241;161784;-52
2024/03/09 04:13:01;;;;;;;;;31.00;21.00;;;;;-4.49;86.54;100736.95;112379;244;40497;-49
2024/03/09 04:15:48;;;;;;;;;26.50;22.00;;;;;-4.50;86.55;100735.23;112290;241;161958;-48
2024/03/09 04:18:31;;;;;;;;;25.00;19.67;;;;;-4.49;86.53;100732.89;112426;244;39736;-48
2024/03/09 04:21:22;;;;;;;;;31.75;23.00;;;;;-4.47;86.61;100731.03;112439;244;39294;-48
2024/03/09 04:24:03;;;;;;;;;29.00;22.00;;;;;-4.46;86.67;100730.95;112472;244;40849;-51
2024/03/09 04:26:40;;;;;;;;;30.00;22.00;;;;;-4.45;86.78;100729.66;112509;244;39912;-51
2024/03/09 04:29:18;;;;;;;;;31.00;22.25;;;;;-4.45;86.85;100728.59;112316;241;162026;-50
2024/03/09 04:31:53;;;;;;;;;31.50;24.00;;;;;-4.44;86.86;100725.40;112451;244;40084;-50
2024/03/09 04:34:38;;;;;;;;;35.00;25.00;;;;;-4.42;86.98;100721.61;112307;241;161934;-50
2024/03/09 04:37:21;;;;;;;;;31.25;23.00;;;;;-4.41;86.95;100722.58;112388;244;39160;-51
2024/03/09 04:39:58;;;;;;;;;30.00;21.67;;;;;-4.38;86.81;100720.83;112324;241;162052;-52
2024/03/09 04:42:36;;;;;;;;;30.50;19.00;;;;;-4.37;86.84;100718.50;112440;244;39807;-52
2024/03/09 04:45:11;;;;;;;;;26.00;20.00;;;;;-4.35;86.88;100719.08;112440;244;39858;-48
2024/03/09 04:47:47;;;;;;;;;33.00;24.00;;;;;-4.36;86.82;100715.12;112398;242;39668;-48
2024/03/09 04:50:24;;;;;;;;;26.00;20.00;;;;;-4.41;86.92;100714.48;112476;244;40151;-48
2024/03/09 04:53:05;;;;;;;;;26.00;21.00;;;;;-4.45;87.02;100713.16;112300;242;161312;-48
2024/03/09 04:55:47;;;;;;;;;15.75;12.50;;;;;-4.50;87.05;100706.95;112415;244;39583;-48
2024/03/09 04:58:28;;;;;;;;;25.75;21.75;;;;;-4.52;87.08;100713.38;112295;242;162799;-52
2024/03/09 05:01:11;;;;;;;;;30.00;23.00;;;;;-4.52;87.13;100713.56;112353;244;39529;-52
2024/03/09 05:03:48;;;;;;;;;32.25;24.00;;;;;-4.52;87.01;100718.83;112251;241;162096;-47
2024/03/09 05:06:34;;;;;;;;;36.00;27.00;;;;;-4.52;87.12;100715.27;112372;244;40836;-49
2024/03/09 05:09:14;;;;;;;;;29.25;24.00;;;;;-4.51;87.27;100712.07;112457;244;39874;-52
2024/03/09 05:12:00;;;;;;;;;38.00;27.00;;;;;-4.48;87.31;100716.30;112503;244;41241;-52
2024/03/09 05:14:35;;;;;;;;;33.00;26.00;;;;;-4.45;87.33;100711.06;112473;244;39757;-49
2024/03/09 05:17:16;;;;;;;;;32.00;25.00;;;;;-4.42;87.35;100709.27;112304;241;161974;-49
2024/03/09 05:20:11;;;;;;;;;34.00;25.00;;;;;-4.38;87.32;100711.17;112506;244;40433;-52
2024/03/09 05:22:48;;;;;;;;;32.67;24.67;;;;;-4.31;87.38;100711.26;112306;241;163126;-52
2024/03/09 05:25:30;;;;;;;;;38.00;28.50;;;;;-4.26;87.40;100713.63;112422;244;39971;-52
2024/03/09 05:28:06;;;;;;;;;34.00;24.00;;;;;-4.19;87.30;100717.44;112320;241;161624;-49
2024/03/09 05:30:43;;;;;;;;;32.50;22.00;;;;;-4.13;87.44;100714.81;112375;244;39229;-49
2024/03/09 05:33:22;;;;;;;;;33.25;25.00;;;;;-4.10;87.38;100718.50;112418;244;39721;-49
2024/03/09 05:35:59;;;;;;;;;43.50;28.00;;;;;-4.07;87.56;100720.80;112358;244;39620;-48
2024/03/09 05:38:41;;;;;;;;;27.33;21.33;;;;;-4.03;87.64;100721.28;112419;244;39573;-47
2024/03/09 05:41:20;;;;;;;;;28.00;20.00;;;;;-3.98;87.62;100719.90;112243;241;161914;-48
2024/03/09 05:43:56;;;;;;;;;33.75;27.00;;;;;-3.90;87.67;100724.02;112420;244;42311;-51
2024/03/09 05:46:41;;;;;;;;;30.50;23.00;;;;;-3.80;87.74;100725.02;112220;242;161661;-50
2024/03/09 05:49:23;;;;;;;;;33.75;25.50;;;;;-3.67;87.75;100726.48;112474;244;39104;-48
2024/03/09 05:52:08;;;;;;;;;37.50;28.25;;;;;-3.11;88.13;100719.50;112299;241;162954;-48
2024/03/09 05:54:48;;;;;;;;;42.00;30.00;;;;;-2.42;88.14;100715.98;112453;244;40970;-49
2024/03/09 05:57:27;;;;;;;;;43.00;31.25;;;;;-2.21;87.68;100718.09;112484;244;39770;-49
2024/03/09 06:00:07;;;;;;;;;39.00;30.00;;;;;-2.05;87.31;100716.16;112447;244;39518;-49
2024/03/09 06:02:46;;;;;;;;;42.00;29.00;;;;;-1.64;86.95;100723.45;112490;244;39802;-50
2024/03/09 06:05:30;;;;;;;;;37.50;26.00;;;;;-1.17;87.02;100724.95;112287;240;161072;-50
2024/03/09 06:08:06;;;;;;;;;40.00;30.00;;;;;-0.54;87.54;100717.52;112480;244;40339;-49
2024/03/09 06:10:44;;;;;;;;;40.25;30.25;;;;;0.80;87.93;100714.95;112358;240;161600;-48
2024/03/09 06:13:25;;;;;;;;;43.00;31.75;;;;;1.96;87.28;100709.23;112474;244;39958;-51
2024/03/09 06:16:02;;;;;;;;;42.00;32.00;;;;;2.60;85.75;100711.30;112274;240;161393;-51
2024/03/09 06:18:39;;;;;;;;;46.50;33.75;;;;;2.43;84.76;100710.43;112401;244;40130;-50
2024/03/09 06:21:14;;;;;;;;;48.75;35.00;;;;;2.32;84.38;100712.04;112432;244;39629;-49
2024/03/09 06:23:53;;;;;;;;;42.00;31.00;;;;;2.12;84.13;100716.94;112244;240;160826;-51
2024/03/09 06:26:31;;;;;;;;;48.25;34.25;;;;;1.81;83.44;100710.31;112408;244;39770;-51
2024/03/09 06:29:10;;;;;;;;;44.33;34.00;;;;;1.84;83.21;100707.77;112261;240;161727;-49
2024/03/09 06:31:49;;;;;;;;;53.00;37.00;;;;;2.47;82.49;100710.82;112439;244;40508;-49
2024/03/09 06:34:29;;;;;;;;;51.00;37.00;;;;;2.25;82.36;100706.80;112306;241;160791;-50
2024/03/09 06:37:03;;;;;;;;;48.25;36.00;;;;;2.24;82.59;100704.56;112418;244;39952;-50
2024/03/09 06:39:45;;;;;;;;;50.50;38.25;;;;;2.32;82.44;100707.96;111863;242;555890;-52
2024/03/09 06:42:29;;;;;;;;;50.50;35.50;;;;;2.73;82.41;100707.30;112370;244;39761;-53
2024/03/09 06:45:09;;;;;;;;;50.00;38.00;;;;;3.10;82.06;100708.04;112474;243;39588;-52
2024/03/09 06:47:57;;;;;;;;;44.25;33.00;;;;;3.43;82.12;100705.15;112291;240;160594;-50
2024/03/09 06:50:43;;;;;;;;;48.25;35.25;;;;;4.17;81.69;100701.04;112470;244;39869;-50
2024/03/09 06:53:24;;;;;;;;;46.75;35.00;;;;;5.06;81.86;100699.59;112366;241;162248;-52
2024/03/09 06:56:04;;;;;;;;;52.00;38.50;;;;;5.34;80.81;100699.73;112825;243;38855;-53
2024/03/09 06:58:43;;;;;;;;;52.25;38.25;;;;;5.67;80.30;100695.91;112508;243;160922;-51
2024/03/09 07:01:25;;;;;;;;;58.00;41.25;;;;;6.28;79.37;100701.77;112406;244;39413;-52
2024/03/09 07:04:08;;;;;;;;;61.67;43.00;;;;;7.18;78.60;100695.09;112299;240;161074;-49
2024/03/09 07:06:50;;;;;;;;;68.00;49.33;;;;;7.77;77.56;100691.70;112443;244;39885;-49
2024/03/09 07:09:32;;;;;;;;;66.00;49.00;;;;;7.67;76.94;100697.89;112296;244;160925;-52
2024/03/09 07:12:08;;;;;;;;;69.50;48.00;;;;;6.93;76.10;100703.80;112369;244;39235;-51
2024/03/09 07:14:45;;;;;;;;;57.75;41.50;;;;;6.40;75.91;100704.61;112465;244;41173;-49
2024/03/09 07:17:21;;;;;;;;;64.00;47.67;;;;;6.89;76.01;100707.45;112248;241;161933;-49
2024/03/09 07:20:10;;;;;;;;;54.50;40.00;;;;;7.55;74.53;100696.46;112539;244;40051;-50
2024/03/09 07:22:48;;;;;;;;;64.67;48.00;;;;;8.25;74.22;100695.76;112328;241;160967;-50
2024/03/09 07:25:32;;;;;;;;;60.00;44.00;;;;;8.68;73.42;100698.88;112509;244;39253;-48
2024/03/09 07:28:13;;;;;;;;;57.50;44.00;;;;;8.83;72.02;100696.77;112370;241;161630;-51
2024/03/09 07:30:55;;;;;;;;;58.00;43.00;;;;;8.88;71.06;100695.14;112438;244;39470;-52
2024/03/09 07:33:35;;;;;;;;;60.25;43.25;;;;;8.95;70.50;100694.83;112445;241;161455;-49
2024/03/09 07:36:10;;;;;;;;;54.00;40.00;;;;;9.05;68.97;100697.91;112464;244;39084;-48
2024/03/09 07:38:55;;;;;;;;;58.67;42.67;;;;;9.26;69.19;100694.61;112475;244;39684;-52
2024/03/09 07:41:32;;;;;;;;;58.50;44.00;;;;;10.07;68.91;100691.69;112332;241;160914;-54
2024/03/09 07:44:07;;;;;;;;;61.50;44.25;;;;;10.84;68.71;100691.80;112603;244;40291;-49
2024/03/09 07:46:46;;;;;;;;;75.25;54.25;;;;;12.09;67.59;100685.51;112380;241;161309;-49
2024/03/09 07:49:23;;;;;;;;;55.50;42.50;;;;;12.82;65.05;100683.03;112548;244;40683;-50
2024/03/09 07:52:05;;;;;;;;;57.00;42.00;;;;;13.55;63.52;100682.64;112424;241;163230;-50
2024/03/09 07:54:41;;;;;;;;;59.00;44.00;;;;;14.23;63.19;100683.84;112486;244;40601;-50
2024/03/09 07:57:20;;;;;;;;;58.00;44.00;;;;;15.04;61.04;100683.35;112531;244;40163;-50
2024/03/09 07:59:55;;;;;;;;;55.00;43.00;;;;;15.54;59.89;100682.05;112401;244;40613;-52
2024/03/09 08:02:32;;;;;;;;;55.25;41.50;;;;;15.94;57.76;100679.20;112525;244;39517;-52
2024/03/09 08:05:13;;;;;;;;;57.50;43.75;;;;;16.39;54.84;100679.35;112327;241;161287;-51
2024/03/09 08:07:51;;;;;;;;;61.33;44.00;;;;;17.14;55.13;100676.89;112505;243;39179;-52
2024/03/09 08:10:32;;;;;;;;;58.00;43.00;;;;;17.90;53.22;100671.17;112313;241;161286;-53
2024/03/09 08:13:10;;;;;;;;;58.00;44.25;;;;;18.66;50.77;100677.27;112477;244;41264;-50
2024/03/09 08:15:49;;;;;;;;;49.00;38.00;;;;;19.11;49.35;100673.89;112359;241;161497;-50
2024/03/09 08:18:26;;;;;;;;;43.00;34.50;;;;;19.69;47.10;100674.77;112441;244;40530;-51
2024/03/09 08:21:02;;;;;;;;;51.25;39.50;;;;;20.26;47.00;100665.36;112426;244;40315;-51
2024/03/09 08:23:39;;;;;;;;;58.50;43.75;;;;;20.65;44.87;100665.02;112297;241;161065;-50
2024/03/09 08:26:20;;;;;;;;;53.50;41.00;;;;;20.67;44.51;100665.73;112451;244;39697;-50
2024/03/09 08:28:57;;;;;;;;;58.00;44.00;;;;;20.55;42.00;100662.11;112272;241;161402;-50
2024/03/09 08:31:43;;;;;;;;;60.00;45.00;;;;;20.29;40.98;100661.07;112462;244;40517;-50
2024/03/09 08:34:31;;;;;;;;;55.00;41.50;;;;;19.85;39.81;100659.48;112320;241;162282;-52
2024/03/09 08:37:12;;;;;;;;;47.00;36.75;;;;;19.94;39.69;100655.51;112428;244;40326;-50
2024/03/09 08:39:56;;;;;;;;;55.75;42.75;;;;;20.05;39.20;100651.34;112270;241;161208;-51
2024/03/09 08:42:33;;;;;;;;;47.33;37.00;;;;;19.90;38.64;100652.09;112401;244;40215;-51
2024/03/09 08:45:09;;;;;;;;;55.00;42.00;;;;;19.39;38.11;100654.11;112399;244;39916;-49
2024/03/09 08:47:47;;;;;;;;;49.00;37.75;;;;;18.80;38.61;100654.34;112317;241;160606;-49
2024/03/09 08:50:26;;;;;;;;;47.00;37.00;;;;;18.64;38.81;100653.64;112386;244;40600;-53
2024/03/09 08:53:05;;;;;;;;;41.50;32.00;;;;;18.54;35.57;100653.50;112284;241;161161;-52
2024/03/09 08:55:44;;;;;;;;;39.25;31.00;;;;;18.21;37.11;100651.63;112444;244;39562;-51
2024/03/09 08:58:22;;;;;;;;;39.50;31.25;;;;;18.04;36.33;100648.65;112333;241;161662;-54
2024/03/09 09:00:58;;;;;;;;;39.75;31.00;;;;;17.53;36.30;100650.52;112404;244;39253;-54
2024/03/09 09:03:33;;;;;;;;;43.00;33.50;;;;;17.37;36.29;100647.63;112328;241;162059;-52
2024/03/09 09:06:10;;;;;;;;;35.50;28.00;;;;;17.31;37.41;100645.09;112430;244;40830;-52
2024/03/09 09:08:47;;;;;;;;;34.00;27.00;;;;;17.43;36.81;100645.92;112522;244;39958;-49
2024/03/09 09:11:24;;;;;;;;;37.25;30.00;;;;;17.63;35.24;100646.08;112302;241;161128;-50
2024/03/09 09:14:03;;;;;;;;;36.50;27.00;;;;;17.35;34.25;100645.94;112496;244;40667;-49
2024/03/09 09:16:41;;;;;;;;;35.25;28.00;;;;;17.06;35.23;100641.70;112292;241;161708;-53
2024/03/09 09:19:20;;;;;;;;;37.25;28.50;;;;;17.00;35.10;100642.95;112488;244;40734;-54
2024/03/09 09:21:59;;;;;;;;;36.00;29.00;;;;;17.11;35.35;100638.23;112328;241;161548;-50
2024/03/09 09:24:34;;;;;;;;;37.50;29.50;;;;;17.33;36.30;100636.73;112460;244;40770;-52
2024/03/09 09:27:18;;;;;;;;;34.67;27.67;;;;;17.55;34.70;100640.29;112414;244;40407;-52
2024/03/09 09:29:56;;;;;;;;;37.25;29.50;;;;;17.50;34.79;100638.52;112262;242;160768;-49
2024/03/09 09:32:34;;;;;;;;;55.00;42.00;;;;;17.70;35.44;100639.05;112547;244;39739;-54
2024/03/09 09:35:09;;;;;;;;;43.25;33.50;;;;;17.93;35.29;100633.97;112293;241;162213;-52
2024/03/09 09:37:48;;;;;;;;;45.00;35.00;;;;;18.11;35.87;100635.08;112376;244;41500;-52
2024/03/09 09:40:25;;;;;;;;;36.33;27.33;;;;;18.48;35.80;100634.56;112317;240;161263;-53
2024/03/09 09:43:02;;;;;;;;;39.25;31.75;;;;;18.73;34.37;100633.84;112475;244;41508;-51
2024/03/09 09:45:45;;;;;;;;;35.00;27.00;;;;;18.54;34.98;100633.05;112353;244;161563;-51
2024/03/09 09:48:24;;;;;;;;;37.25;31.00;;;;;18.72;34.54;100624.84;112439;244;39089;-50
2024/03/09 09:51:03;;;;;;;;;43.00;33.00;;;;;19.03;34.71;100620.98;112438;244;39559;-49
2024/03/09 09:53:52;;;;;;;;;38.00;30.00;;;;;19.04;33.21;100623.30;112301;244;161607;-51
2024/03/09 09:56:28;;;;;;;;;37.50;29.75;;;;;18.73;32.35;100620.77;112491;244;39774;-49
2024/03/09 09:59:05;;;;;;;;;28.00;24.00;;;;;18.16;32.45;100616.36;112332;240;161476;-50
2024/03/09 10:01:42;;;;;;;;;32.67;26.00;;;;;16.92;32.59;100616.08;112421;244;39904;-50
2024/03/09 10:04:18;;;;;;;;;26.75;21.00;;;;;15.94;32.50;100608.02;112329;243;161737;-49
2024/03/09 10:07:06;;;;;;;;;33.75;25.75;;;;;15.45;33.51;100608.42;112630;243;39755;-50
2024/03/09 10:09:47;;;;;;;;;30.00;24.00;;;;;14.93;33.98;100616.52;112658;242;161490;-51
2024/03/09 10:12:34;;;;;;;;;26.00;19.00;;;;;14.29;34.57;100618.89;112372;244;39452;-52
2024/03/09 10:15:23;;;;;;;;;34.00;26.75;;;;;13.79;34.80;100614.81;112436;244;40696;-53
2024/03/09 10:18:04;;;;;;;;;29.25;23.25;;;;;13.34;35.59;100606.35;112278;240;161203;-50
2024/03/09 10:20:47;;;;;;;;;29.00;23.00;;;;;13.09;36.00;100607.59;112411;244;39457;-50
2024/03/09 10:23:25;;;;;;;;;28.00;22.00;;;;;12.72;35.02;100611.36;112299;241;161418;-49
2024/03/09 10:26:12;;;;;;;;;28.00;21.00;;;;;12.42;35.55;100610.70;112379;244;39062;-50
2024/03/09 10:28:58;;;;;;;;;25.00;19.00;;;;;12.13;35.94;100603.04;112190;242;160952;-50
2024/03/09 10:31:39;;;;;;;;;26.00;20.00;;;;;11.93;36.47;100601.45;112418;244;39009;-49
2024/03/09 10:34:18;;;;;;;;;29.50;21.75;;;;;11.54;36.52;100594.05;112319;242;162572;-52
2024/03/09 10:37:01;;;;;;;;;24.00;19.75;;;;;11.42;36.81;100591.32;112384;244;41185;-52
2024/03/09 10:39:42;;;;;;;;;25.00;20.33;;;;;11.13;36.67;100596.30;112471;244;39424;-49
2024/03/09 10:42:21;;;;;;;;;31.25;23.25;;;;;10.96;37.12;100598.98;112385;244;40330;-48
2024/03/09 10:45:03;;;;;;;;;21.50;19.00;;;;;10.76;36.54;100601.14;112484;244;39952;-52
2024/03/09 10:47:42;;;;;;;;;20.50;15.75;;;;;10.62;36.82;100599.42;112325;242;162089;-51
2024/03/09 10:50:25;;;;;;;;;22.00;17.00;;;;;10.51;37.01;100591.16;112442;244;39489;-51
2024/03/09 10:53:38;;;;;;;;;25.00;19.67;;;;;10.44;37.45;100588.09;112325;241;162371;-50
2024/03/09 10:56:23;;;;;;;;;26.50;20.25;;;;;10.57;37.70;100583.98;112405;244;39429;-50
2024/03/09 10:59:03;;;;;;;;;23.00;18.00;;;;;10.66;38.18;100578.54;112287;241;162478;-49
2024/03/09 11:01:39;;;;;;;;;19.75;16.25;;;;;10.73;38.06;100579.55;112366;244;39918;-49
2024/03/09 11:04:17;;;;;;;;;20.67;17.00;;;;;10.65;37.33;100585.92;112293;241;161557;-51
2024/03/09 11:06:56;;;;;;;;;24.00;19.00;;;;;10.55;37.16;100581.53;112418;244;40852;-52
2024/03/09 11:09:37;;;;;;;;;23.00;18.00;;;;;10.48;37.50;100583.83;112441;244;40917;-49
2024/03/09 11:12:20;;;;;;;;;15.00;12.00;;;;;10.41;37.74;100573.80;112362;242;39808;-48
2024/03/09 11:14:59;;;;;;;;;22.50;16.50;;;;;10.34;37.36;100571.69;112386;244;40809;-53
2024/03/09 11:17:42;;;;;;;;;23.50;18.00;;;;;10.26;37.22;100565.08;112259;244;161379;-52
2024/03/09 11:20:26;;;;;;;;;20.00;16.00;;;;;10.16;37.81;100561.66;112533;244;39403;-51
2024/03/09 11:23:06;;;;;;;;;27.75;21.00;;;;;10.12;38.18;100558.14;112420;241;162211;-49
2024/03/09 11:25:53;;;;;;;;;24.00;18.00;;;;;10.17;38.21;100552.31;112550;244;40684;-49
2024/03/09 11:28:50;;;;;;;;;17.00;15.00;;;;;10.10;38.00;100538.13;112466;241;162298;-49
2024/03/09 11:31:28;;;;;;;;;22.00;17.50;;;;;10.14;38.38;100533.95;112503;244;39172;-49
2024/03/09 11:34:21;;;;;;;;;28.75;22.00;;;;;10.12;38.35;100532.95;112494;241;162029;-53
2024/03/09 11:36:57;;;;;;;;;17.50;14.75;;;;;10.09;38.28;100537.90;112482;244;39175;-52
2024/03/09 11:39:37;;;;;;;;;22.75;16.50;;;;;10.00;37.97;100530.94;112599;244;39400;-49
2024/03/09 11:42:35;;;;;;;;;22.50;16.25;;;;;9.93;37.99;100524.75;112450;242;41654;-49
2024/03/09 11:45:21;;;;;;;;;20.50;17.50;;;;;9.90;38.45;100521.65;112547;244;39634;-49
2024/03/09 11:48:02;;;;;;;;;27.00;19.33;;;;;9.95;38.68;100521.84;112351;240;160765;-52
2024/03/09 11:50:43;;;;;;;;;20.67;15.00;;;;;9.91;37.99;100521.42;112563;244;40994;-52
2024/03/09 11:53:22;;;;;;;;;28.75;21.50;;;;;9.78;37.55;100523.42;112388;241;160942;-52
2024/03/09 11:56:05;;;;;;;;;16.00;13.00;;;;;9.72;37.47;100521.83;112392;244;39645;-52
2024/03/09 11:58:41;;;;;;;;;21.00;16.00;;;;;9.66;37.64;100515.98;112269;241;160961;-52
2024/03/09 12:01:25;;;;;;;;;21.25;16.25;;;;;9.65;37.98;100515.31;112440;244;39596;-52
2024/03/09 12:04:13;;;;;;;;;17.50;14.50;;;;;9.65;37.93;100514.07;112246;241;161136;-50